sensor_id;sensor_type;location;lat;lon;timestamp;P1;durP1;ratioP1;P2;durP2;ratioP2
4563;SDS011;2294;51.818;8.484;2023-01-01T00:02:03;10.50;;;4.30;;
4563;SDS011;2294;51.818;8.484;2023-01-01T00:04:31;14.53;;;4.13;;
4563;SDS011;2294;51.818;8.484;2023-01-01T00:06:58;5.90;;;3.30;;
4563;SDS011;2294;51.818;8.484;2023-01-01T00:09:25;6.37;;;4.60;;
4563;SDS011;2294;51.818;8.484;2023-01-01T00:12:11;4.10;;;3.07;;
4563;SDS011;2294;51.818;8.484;2023-01-01T00:14:38;6.27;;;2.70;;
4563;SDS011;2294;51.818;8.484;2023-01-01T00:17:07;4.00;;;2.60;;
4563;SDS011;2294;51.818;8.484;2023-01-01T00:19:33;6.80;;;2.90;;
4563;SDS011;2294;51.818;8.484;2023-01-01T00:22:00;6.53;;;3.07;;
4563;SDS011;2294;51.818;8.484;2023-01-01T00:24:27;9.10;;;3.40;;
4563;SDS011;2294;51.818;8.484;2023-01-01T00:26:54;7.80;;;3.83;;
4563;SDS011;2294;51.818;8.484;2023-01-01T00:29:22;9.20;;;4.20;;
4563;SDS011;2294;51.818;8.484;2023-01-01T00:31:49;13.73;;;4.63;;
4563;SDS011;2294;51.818;8.484;2023-01-01T00:34:16;10.13;;;2.97;;
4563;SDS011;2294;51.818;8.484;2023-01-01T00:36:42;8.10;;;5.00;;
4563;SDS011;2294;51.818;8.484;2023-01-01T00:39:09;13.30;;;3.47;;
4563;SDS011;2294;51.818;8.484;2023-01-01T00:41:36;16.00;;;3.33;;
4563;SDS011;2294;51.818;8.484;2023-01-01T00:44:03;7.30;;;2.90;;
4563;SDS011;2294;51.818;8.484;2023-01-01T00:46:31;9.60;;;3.57;;
4563;SDS011;2294;51.818;8.484;2023-01-01T00:48:58;5.10;;;2.67;;
4563;SDS011;2294;51.818;8.484;2023-01-01T00:51:25;12.07;;;3.80;;
4563;SDS011;2294;51.818;8.484;2023-01-01T00:53:51;11.03;;;4.07;;
4563;SDS011;2294;51.818;8.484;2023-01-01T00:56:18;8.43;;;3.60;;
4563;SDS011;2294;51.818;8.484;2023-01-01T00:58:45;6.30;;;2.77;;
4563;SDS011;2294;51.818;8.484;2023-01-01T01:01:12;10.23;;;3.23;;
4563;SDS011;2294;51.818;8.484;2023-01-01T01:03:40;5.50;;;2.77;;
4563;SDS011;2294;51.818;8.484;2023-01-01T01:06:07;7.80;;;3.13;;
4563;SDS011;2294;51.818;8.484;2023-01-01T01:08:37;9.10;;;3.93;;
4563;SDS011;2294;51.818;8.484;2023-01-01T01:11:10;16.90;;;3.13;;
4563;SDS011;2294;51.818;8.484;2023-01-01T01:13:38;6.20;;;2.90;;
4563;SDS011;2294;51.818;8.484;2023-01-01T01:16:09;18.50;;;3.47;;
4563;SDS011;2294;51.818;8.484;2023-01-01T01:18:36;7.47;;;2.53;;
4563;SDS011;2294;51.818;8.484;2023-01-01T01:21:05;14.00;;;2.93;;
4563;SDS011;2294;51.818;8.484;2023-01-01T01:23:32;7.30;;;3.07;;
4563;SDS011;2294;51.818;8.484;2023-01-01T01:26:06;9.20;;;2.90;;
4563;SDS011;2294;51.818;8.484;2023-01-01T01:28:34;11.30;;;3.13;;
4563;SDS011;2294;51.818;8.484;2023-01-01T01:31:01;7.33;;;2.67;;
4563;SDS011;2294;51.818;8.484;2023-01-01T01:33:29;9.97;;;3.30;;
4563;SDS011;2294;51.818;8.484;2023-01-01T01:35:56;6.30;;;2.73;;
4563;SDS011;2294;51.818;8.484;2023-01-01T01:38:24;7.00;;;3.27;;
4563;SDS011;2294;51.818;8.484;2023-01-01T01:40:51;9.47;;;3.60;;
4563;SDS011;2294;51.818;8.484;2023-01-01T01:43:19;7.27;;;3.40;;
4563;SDS011;2294;51.818;8.484;2023-01-01T01:45:49;13.67;;;3.07;;
4563;SDS011;2294;51.818;8.484;2023-01-01T01:48:18;14.73;;;3.87;;
4563;SDS011;2294;51.818;8.484;2023-01-01T01:50:46;5.87;;;2.57;;
4563;SDS011;2294;51.818;8.484;2023-01-01T01:53:15;6.07;;;3.07;;
4563;SDS011;2294;51.818;8.484;2023-01-01T01:55:50;10.17;;;3.00;;
4563;SDS011;2294;51.818;8.484;2023-01-01T01:58:19;8.97;;;3.37;;
4563;SDS011;2294;51.818;8.484;2023-01-01T02:00:47;8.70;;;3.07;;
4563;SDS011;2294;51.818;8.484;2023-01-01T02:03:15;5.80;;;3.00;;
4563;SDS011;2294;51.818;8.484;2023-01-01T02:05:45;8.13;;;2.90;;
4563;SDS011;2294;51.818;8.484;2023-01-01T02:08:12;9.30;;;2.70;;
4563;SDS011;2294;51.818;8.484;2023-01-01T02:10:40;6.10;;;2.77;;
4563;SDS011;2294;51.818;8.484;2023-01-01T02:13:08;5.37;;;3.00;;
4563;SDS011;2294;51.818;8.484;2023-01-01T02:15:39;6.67;;;2.67;;
4563;SDS011;2294;51.818;8.484;2023-01-01T02:18:12;7.03;;;2.90;;
4563;SDS011;2294;51.818;8.484;2023-01-01T02:20:44;6.93;;;2.30;;
4563;SDS011;2294;51.818;8.484;2023-01-01T02:23:24;4.73;;;2.43;;
4563;SDS011;2294;51.818;8.484;2023-01-01T02:26:00;9.10;;;3.13;;
4563;SDS011;2294;51.818;8.484;2023-01-01T02:28:43;5.83;;;3.00;;
4563;SDS011;2294;51.818;8.484;2023-01-01T02:31:18;6.20;;;2.70;;
4563;SDS011;2294;51.818;8.484;2023-01-01T02:33:48;8.00;;;2.27;;
4563;SDS011;2294;51.818;8.484;2023-01-01T02:36:16;4.73;;;2.43;;
4563;SDS011;2294;51.818;8.484;2023-01-01T02:38:45;5.50;;;3.13;;
4563;SDS011;2294;51.818;8.484;2023-01-01T02:41:18;5.07;;;2.30;;
4563;SDS011;2294;51.818;8.484;2023-01-01T02:43:48;9.33;;;2.93;;
4563;SDS011;2294;51.818;8.484;2023-01-01T02:46:16;8.50;;;2.37;;
4563;SDS011;2294;51.818;8.484;2023-01-01T02:48:44;7.53;;;2.50;;
4563;SDS011;2294;51.818;8.484;2023-01-01T02:51:14;7.37;;;2.87;;
4563;SDS011;2294;51.818;8.484;2023-01-01T02:53:51;4.07;;;2.20;;
4563;SDS011;2294;51.818;8.484;2023-01-01T02:56:30;6.00;;;2.70;;
4563;SDS011;2294;51.818;8.484;2023-01-01T02:59:05;6.70;;;2.80;;
4563;SDS011;2294;51.818;8.484;2023-01-01T03:02:03;5.03;;;2.53;;
4563;SDS011;2294;51.818;8.484;2023-01-01T03:04:45;8.73;;;2.80;;
4563;SDS011;2294;51.818;8.484;2023-01-01T03:07:19;4.70;;;2.80;;
4563;SDS011;2294;51.818;8.484;2023-01-01T03:09:56;5.80;;;3.00;;
4563;SDS011;2294;51.818;8.484;2023-01-01T03:12:29;4.43;;;2.37;;
4563;SDS011;2294;51.818;8.484;2023-01-01T03:15:08;4.40;;;2.37;;
4563;SDS011;2294;51.818;8.484;2023-01-01T03:17:45;3.83;;;2.57;;
4563;SDS011;2294;51.818;8.484;2023-01-01T03:20:23;5.30;;;2.47;;
4563;SDS011;2294;51.818;8.484;2023-01-01T03:22:54;6.07;;;2.30;;
4563;SDS011;2294;51.818;8.484;2023-01-01T03:25:24;5.97;;;2.27;;
4563;SDS011;2294;51.818;8.484;2023-01-01T03:27:57;5.23;;;2.97;;
4563;SDS011;2294;51.818;8.484;2023-01-01T03:30:26;5.50;;;2.20;;
4563;SDS011;2294;51.818;8.484;2023-01-01T03:32:57;6.33;;;2.93;;
4563;SDS011;2294;51.818;8.484;2023-01-01T03:35:29;4.30;;;2.40;;
4563;SDS011;2294;51.818;8.484;2023-01-01T03:38:02;7.00;;;2.43;;
4563;SDS011;2294;51.818;8.484;2023-01-01T03:40:32;3.33;;;1.77;;
4563;SDS011;2294;51.818;8.484;2023-01-01T03:43:03;4.20;;;2.00;;
4563;SDS011;2294;51.818;8.484;2023-01-01T03:45:36;3.30;;;2.10;;
4563;SDS011;2294;51.818;8.484;2023-01-01T03:48:06;5.80;;;2.83;;
4563;SDS011;2294;51.818;8.484;2023-01-01T03:50:36;4.63;;;2.10;;
4563;SDS011;2294;51.818;8.484;2023-01-01T03:53:16;4.90;;;2.03;;
4563;SDS011;2294;51.818;8.484;2023-01-01T03:55:53;5.60;;;2.20;;
4563;SDS011;2294;51.818;8.484;2023-01-01T03:58:31;5.20;;;1.63;;
4563;SDS011;2294;51.818;8.484;2023-01-01T04:01:03;2.03;;;1.57;;
4563;SDS011;2294;51.818;8.484;2023-01-01T04:03:35;3.80;;;2.00;;
4563;SDS011;2294;51.818;8.484;2023-01-01T04:06:05;5.30;;;1.70;;
4563;SDS011;2294;51.818;8.484;2023-01-01T04:08:34;10.13;;;1.67;;
4563;SDS011;2294;51.818;8.484;2023-01-01T04:11:02;5.27;;;2.83;;
4563;SDS011;2294;51.818;8.484;2023-01-01T04:13:54;5.43;;;1.83;;
4563;SDS011;2294;51.818;8.484;2023-01-01T04:16:22;3.40;;;1.40;;
4563;SDS011;2294;51.818;8.484;2023-01-01T04:18:49;2.70;;;1.37;;
4563;SDS011;2294;51.818;8.484;2023-01-01T04:21:16;4.63;;;1.60;;
4563;SDS011;2294;51.818;8.484;2023-01-01T04:23:43;3.60;;;1.50;;
4563;SDS011;2294;51.818;8.484;2023-01-01T04:26:11;4.70;;;1.90;;
4563;SDS011;2294;51.818;8.484;2023-01-01T04:28:38;2.10;;;1.40;;
4563;SDS011;2294;51.818;8.484;2023-01-01T04:31:06;1.73;;;1.10;;
4563;SDS011;2294;51.818;8.484;2023-01-01T04:33:35;4.87;;;2.00;;
4563;SDS011;2294;51.818;8.484;2023-01-01T04:36:02;2.37;;;1.30;;
4563;SDS011;2294;51.818;8.484;2023-01-01T04:38:31;3.77;;;1.57;;
4563;SDS011;2294;51.818;8.484;2023-01-01T04:40:59;1.73;;;1.07;;
4563;SDS011;2294;51.818;8.484;2023-01-01T04:43:27;2.93;;;1.60;;
4563;SDS011;2294;51.818;8.484;2023-01-01T04:45:55;6.20;;;2.23;;
4563;SDS011;2294;51.818;8.484;2023-01-01T04:48:22;1.63;;;1.30;;
4563;SDS011;2294;51.818;8.484;2023-01-01T04:50:55;3.23;;;1.80;;
4563;SDS011;2294;51.818;8.484;2023-01-01T04:53:22;3.40;;;1.47;;
4563;SDS011;2294;51.818;8.484;2023-01-01T04:55:49;3.37;;;2.10;;
4563;SDS011;2294;51.818;8.484;2023-01-01T04:58:16;2.40;;;1.50;;
4563;SDS011;2294;51.818;8.484;2023-01-01T05:00:45;1.97;;;1.23;;
4563;SDS011;2294;51.818;8.484;2023-01-01T05:03:14;2.73;;;1.60;;
4563;SDS011;2294;51.818;8.484;2023-01-01T05:05:41;7.80;;;1.47;;
4563;SDS011;2294;51.818;8.484;2023-01-01T05:08:09;2.50;;;1.43;;
4563;SDS011;2294;51.818;8.484;2023-01-01T05:10:36;6.20;;;1.47;;
4563;SDS011;2294;51.818;8.484;2023-01-01T05:13:05;2.07;;;1.43;;
4563;SDS011;2294;51.818;8.484;2023-01-01T05:15:34;3.43;;;2.17;;
4563;SDS011;2294;51.818;8.484;2023-01-01T05:18:01;4.23;;;1.47;;
4563;SDS011;2294;51.818;8.484;2023-01-01T05:20:28;3.90;;;1.43;;
4563;SDS011;2294;51.818;8.484;2023-01-01T05:22:55;4.53;;;1.50;;
4563;SDS011;2294;51.818;8.484;2023-01-01T05:25:23;4.60;;;1.77;;
4563;SDS011;2294;51.818;8.484;2023-01-01T05:27:50;4.47;;;1.50;;
4563;SDS011;2294;51.818;8.484;2023-01-01T05:30:17;2.77;;;1.27;;
4563;SDS011;2294;51.818;8.484;2023-01-01T05:32:44;1.83;;;1.50;;
4563;SDS011;2294;51.818;8.484;2023-01-01T05:35:11;3.10;;;1.70;;
4563;SDS011;2294;51.818;8.484;2023-01-01T05:37:38;5.40;;;1.40;;
4563;SDS011;2294;51.818;8.484;2023-01-01T05:40:05;5.30;;;1.77;;
4563;SDS011;2294;51.818;8.484;2023-01-01T05:42:34;3.20;;;1.40;;
4563;SDS011;2294;51.818;8.484;2023-01-01T05:45:01;5.30;;;1.57;;
4563;SDS011;2294;51.818;8.484;2023-01-01T05:47:28;4.87;;;2.30;;
4563;SDS011;2294;51.818;8.484;2023-01-01T05:49:55;2.10;;;1.80;;
4563;SDS011;2294;51.818;8.484;2023-01-01T05:52:22;5.23;;;1.50;;
4563;SDS011;2294;51.818;8.484;2023-01-01T05:54:48;1.83;;;1.20;;
4563;SDS011;2294;51.818;8.484;2023-01-01T05:57:15;7.83;;;1.40;;
4563;SDS011;2294;51.818;8.484;2023-01-01T05:59:44;6.47;;;1.37;;
4563;SDS011;2294;51.818;8.484;2023-01-01T06:02:11;6.97;;;1.97;;
4563;SDS011;2294;51.818;8.484;2023-01-01T06:04:38;3.10;;;1.23;;
4563;SDS011;2294;51.818;8.484;2023-01-01T06:07:04;5.60;;;1.30;;
4563;SDS011;2294;51.818;8.484;2023-01-01T06:09:31;4.10;;;1.67;;
4563;SDS011;2294;51.818;8.484;2023-01-01T06:11:58;5.23;;;1.73;;
4563;SDS011;2294;51.818;8.484;2023-01-01T06:14:25;2.20;;;1.10;;
4563;SDS011;2294;51.818;8.484;2023-01-01T06:16:53;7.53;;;1.20;;
4563;SDS011;2294;51.818;8.484;2023-01-01T06:19:20;3.13;;;1.37;;
4563;SDS011;2294;51.818;8.484;2023-01-01T06:21:47;3.43;;;1.30;;
4563;SDS011;2294;51.818;8.484;2023-01-01T06:24:14;2.57;;;1.50;;
4563;SDS011;2294;51.818;8.484;2023-01-01T06:26:41;1.53;;;1.23;;
4563;SDS011;2294;51.818;8.484;2023-01-01T06:29:07;4.63;;;1.50;;
4563;SDS011;2294;51.818;8.484;2023-01-01T06:31:34;2.10;;;1.40;;
4563;SDS011;2294;51.818;8.484;2023-01-01T06:34:03;2.63;;;1.33;;
4563;SDS011;2294;51.818;8.484;2023-01-01T06:36:29;2.73;;;1.30;;
4563;SDS011;2294;51.818;8.484;2023-01-01T06:38:56;6.30;;;2.20;;
4563;SDS011;2294;51.818;8.484;2023-01-01T06:41:25;6.33;;;1.27;;
4563;SDS011;2294;51.818;8.484;2023-01-01T06:43:53;1.70;;;1.00;;
4563;SDS011;2294;51.818;8.484;2023-01-01T06:46:21;3.50;;;1.87;;
4563;SDS011;2294;51.818;8.484;2023-01-01T06:48:51;4.37;;;1.50;;
4563;SDS011;2294;51.818;8.484;2023-01-01T06:51:20;1.90;;;1.20;;
4563;SDS011;2294;51.818;8.484;2023-01-01T06:53:49;1.57;;;1.20;;
4563;SDS011;2294;51.818;8.484;2023-01-01T06:56:16;7.20;;;1.80;;
4563;SDS011;2294;51.818;8.484;2023-01-01T06:58:44;3.87;;;1.20;;
4563;SDS011;2294;51.818;8.484;2023-01-01T07:01:11;3.43;;;1.40;;
4563;SDS011;2294;51.818;8.484;2023-01-01T07:03:39;6.97;;;1.63;;
4563;SDS011;2294;51.818;8.484;2023-01-01T07:06:07;1.67;;;1.43;;
4563;SDS011;2294;51.818;8.484;2023-01-01T07:08:36;5.87;;;1.50;;
4563;SDS011;2294;51.818;8.484;2023-01-01T07:11:03;1.77;;;0.93;;
4563;SDS011;2294;51.818;8.484;2023-01-01T07:13:30;5.30;;;1.50;;
4563;SDS011;2294;51.818;8.484;2023-01-01T07:15:57;2.43;;;1.30;;
4563;SDS011;2294;51.818;8.484;2023-01-01T07:18:24;2.70;;;1.30;;
4563;SDS011;2294;51.818;8.484;2023-01-01T07:20:52;1.90;;;1.70;;
4563;SDS011;2294;51.818;8.484;2023-01-01T07:23:20;2.27;;;1.27;;
4563;SDS011;2294;51.818;8.484;2023-01-01T07:25:49;3.87;;;1.30;;
4563;SDS011;2294;51.818;8.484;2023-01-01T07:28:17;4.23;;;1.20;;
4563;SDS011;2294;51.818;8.484;2023-01-01T07:30:44;6.03;;;1.97;;
4563;SDS011;2294;51.818;8.484;2023-01-01T07:33:11;1.90;;;1.20;;
4563;SDS011;2294;51.818;8.484;2023-01-01T07:35:39;4.30;;;1.53;;
4563;SDS011;2294;51.818;8.484;2023-01-01T07:38:08;4.67;;;1.60;;
4563;SDS011;2294;51.818;8.484;2023-01-01T07:40:35;25.27;;;2.40;;
4563;SDS011;2294;51.818;8.484;2023-01-01T07:43:04;2.60;;;1.63;;
4563;SDS011;2294;51.818;8.484;2023-01-01T07:45:31;2.87;;;1.47;;
4563;SDS011;2294;51.818;8.484;2023-01-01T07:47:59;5.50;;;1.63;;
4563;SDS011;2294;51.818;8.484;2023-01-01T07:50:27;2.90;;;1.40;;
4563;SDS011;2294;51.818;8.484;2023-01-01T07:52:55;2.30;;;1.43;;
4563;SDS011;2294;51.818;8.484;2023-01-01T07:55:22;2.93;;;1.23;;
4563;SDS011;2294;51.818;8.484;2023-01-01T07:57:49;4.23;;;0.80;;
4563;SDS011;2294;51.818;8.484;2023-01-01T08:00:18;1.83;;;1.10;;
4563;SDS011;2294;51.818;8.484;2023-01-01T08:02:46;4.60;;;1.20;;
4563;SDS011;2294;51.818;8.484;2023-01-01T08:05:14;4.23;;;1.63;;
4563;SDS011;2294;51.818;8.484;2023-01-01T08:07:44;3.00;;;1.50;;
4563;SDS011;2294;51.818;8.484;2023-01-01T08:10:12;2.23;;;1.70;;
4563;SDS011;2294;51.818;8.484;2023-01-01T08:12:39;5.03;;;1.10;;
4563;SDS011;2294;51.818;8.484;2023-01-01T08:15:07;3.20;;;1.30;;
4563;SDS011;2294;51.818;8.484;2023-01-01T08:17:38;4.17;;;1.43;;
4563;SDS011;2294;51.818;8.484;2023-01-01T08:20:06;3.50;;;1.47;;
4563;SDS011;2294;51.818;8.484;2023-01-01T08:22:34;3.43;;;1.37;;
4563;SDS011;2294;51.818;8.484;2023-01-01T08:25:01;2.20;;;1.23;;
4563;SDS011;2294;51.818;8.484;2023-01-01T08:27:28;4.27;;;1.77;;
4563;SDS011;2294;51.818;8.484;2023-01-01T08:29:55;2.20;;;0.97;;
4563;SDS011;2294;51.818;8.484;2023-01-01T08:32:21;2.60;;;1.20;;
4563;SDS011;2294;51.818;8.484;2023-01-01T08:34:50;1.87;;;1.77;;
4563;SDS011;2294;51.818;8.484;2023-01-01T08:37:17;3.27;;;1.20;;
4563;SDS011;2294;51.818;8.484;2023-01-01T08:39:47;9.40;;;2.40;;
4563;SDS011;2294;51.818;8.484;2023-01-01T08:42:15;5.03;;;1.40;;
4563;SDS011;2294;51.818;8.484;2023-01-01T08:44:42;3.53;;;1.30;;
4563;SDS011;2294;51.818;8.484;2023-01-01T08:47:14;3.87;;;1.67;;
4563;SDS011;2294;51.818;8.484;2023-01-01T08:49:44;3.37;;;1.40;;
4563;SDS011;2294;51.818;8.484;2023-01-01T08:52:13;2.60;;;1.47;;
4563;SDS011;2294;51.818;8.484;2023-01-01T08:54:40;4.00;;;1.20;;
4563;SDS011;2294;51.818;8.484;2023-01-01T08:57:07;2.80;;;1.03;;
4563;SDS011;2294;51.818;8.484;2023-01-01T08:59:34;4.60;;;1.27;;
4563;SDS011;2294;51.818;8.484;2023-01-01T09:02:01;6.73;;;2.27;;
4563;SDS011;2294;51.818;8.484;2023-01-01T09:04:28;4.13;;;1.37;;
4563;SDS011;2294;51.818;8.484;2023-01-01T09:06:55;2.80;;;1.50;;
4563;SDS011;2294;51.818;8.484;2023-01-01T09:09:23;4.63;;;1.77;;
4563;SDS011;2294;51.818;8.484;2023-01-01T09:11:50;2.80;;;1.40;;
4563;SDS011;2294;51.818;8.484;2023-01-01T09:14:18;2.93;;;1.80;;
4563;SDS011;2294;51.818;8.484;2023-01-01T09:16:45;3.43;;;1.23;;
4563;SDS011;2294;51.818;8.484;2023-01-01T09:19:12;3.97;;;1.50;;
4563;SDS011;2294;51.818;8.484;2023-01-01T09:21:39;2.23;;;1.33;;
4563;SDS011;2294;51.818;8.484;2023-01-01T09:24:06;5.80;;;2.17;;
4563;SDS011;2294;51.818;8.484;2023-01-01T09:26:35;3.43;;;1.83;;
4563;SDS011;2294;51.818;8.484;2023-01-01T09:29:02;7.00;;;1.43;;
4563;SDS011;2294;51.818;8.484;2023-01-01T09:31:29;4.83;;;1.93;;
4563;SDS011;2294;51.818;8.484;2023-01-01T09:33:56;6.17;;;2.43;;
4563;SDS011;2294;51.818;8.484;2023-01-01T09:36:26;4.93;;;2.70;;
4563;SDS011;2294;51.818;8.484;2023-01-01T09:38:55;4.63;;;2.50;;
4563;SDS011;2294;51.818;8.484;2023-01-01T09:41:25;6.70;;;1.70;;
4563;SDS011;2294;51.818;8.484;2023-01-01T09:44:05;2.03;;;1.40;;
4563;SDS011;2294;51.818;8.484;2023-01-01T09:46:39;3.93;;;1.40;;
4563;SDS011;2294;51.818;8.484;2023-01-01T09:49:09;5.27;;;1.50;;
4563;SDS011;2294;51.818;8.484;2023-01-01T09:51:39;3.53;;;2.03;;
4563;SDS011;2294;51.818;8.484;2023-01-01T09:54:10;2.73;;;1.47;;
4563;SDS011;2294;51.818;8.484;2023-01-01T09:56:44;8.93;;;1.73;;
4563;SDS011;2294;51.818;8.484;2023-01-01T09:59:13;10.10;;;2.30;;
4563;SDS011;2294;51.818;8.484;2023-01-01T10:01:41;9.13;;;2.80;;
4563;SDS011;2294;51.818;8.484;2023-01-01T10:04:17;4.13;;;1.60;;
4563;SDS011;2294;51.818;8.484;2023-01-01T10:06:57;3.27;;;1.43;;
4563;SDS011;2294;51.818;8.484;2023-01-01T10:09:32;6.33;;;1.23;;
4563;SDS011;2294;51.818;8.484;2023-01-01T10:12:06;3.83;;;1.40;;
4563;SDS011;2294;51.818;8.484;2023-01-01T10:14:43;4.90;;;1.90;;
4563;SDS011;2294;51.818;8.484;2023-01-01T10:17:14;7.83;;;2.13;;
4563;SDS011;2294;51.818;8.484;2023-01-01T10:19:44;3.33;;;1.50;;
4563;SDS011;2294;51.818;8.484;2023-01-01T10:22:16;3.20;;;1.67;;
4563;SDS011;2294;51.818;8.484;2023-01-01T10:24:47;5.40;;;1.40;;
4563;SDS011;2294;51.818;8.484;2023-01-01T10:27:25;3.53;;;2.00;;
4563;SDS011;2294;51.818;8.484;2023-01-01T10:29:57;8.87;;;1.60;;
4563;SDS011;2294;51.818;8.484;2023-01-01T10:32:27;5.40;;;1.70;;
4563;SDS011;2294;51.818;8.484;2023-01-01T10:34:57;3.57;;;1.57;;
4563;SDS011;2294;51.818;8.484;2023-01-01T10:37:25;5.77;;;1.97;;
4563;SDS011;2294;51.818;8.484;2023-01-01T10:39:59;8.83;;;1.60;;
4563;SDS011;2294;51.818;8.484;2023-01-01T10:42:38;7.33;;;1.40;;
4563;SDS011;2294;51.818;8.484;2023-01-01T10:45:10;2.70;;;1.20;;
4563;SDS011;2294;51.818;8.484;2023-01-01T10:47:38;4.70;;;1.73;;
4563;SDS011;2294;51.818;8.484;2023-01-01T10:50:22;2.33;;;1.50;;
4563;SDS011;2294;51.818;8.484;2023-01-01T10:53:26;2.50;;;1.70;;
4563;SDS011;2294;51.818;8.484;2023-01-01T10:56:00;2.67;;;1.67;;
4563;SDS011;2294;51.818;8.484;2023-01-01T10:58:36;5.53;;;1.90;;
4563;SDS011;2294;51.818;8.484;2023-01-01T11:01:07;2.17;;;1.60;;
4563;SDS011;2294;51.818;8.484;2023-01-01T11:03:35;3.57;;;1.40;;
4563;SDS011;2294;51.818;8.484;2023-01-01T11:06:04;5.70;;;2.13;;
4563;SDS011;2294;51.818;8.484;2023-01-01T11:08:47;3.70;;;1.50;;
4563;SDS011;2294;51.818;8.484;2023-01-01T11:11:19;3.17;;;1.60;;
4563;SDS011;2294;51.818;8.484;2023-01-01T11:13:48;3.80;;;1.77;;
4563;SDS011;2294;51.818;8.484;2023-01-01T11:16:18;10.87;;;1.80;;
4563;SDS011;2294;51.818;8.484;2023-01-01T11:18:46;7.23;;;1.37;;
4563;SDS011;2294;51.818;8.484;2023-01-01T11:21:18;3.23;;;2.00;;
4563;SDS011;2294;51.818;8.484;2023-01-01T11:23:47;5.20;;;1.33;;
4563;SDS011;2294;51.818;8.484;2023-01-01T11:26:20;5.03;;;1.57;;
4563;SDS011;2294;51.818;8.484;2023-01-01T11:29:00;3.00;;;1.37;;
4563;SDS011;2294;51.818;8.484;2023-01-01T11:31:34;4.10;;;1.50;;
4563;SDS011;2294;51.818;8.484;2023-01-01T11:34:04;2.93;;;1.70;;
4563;SDS011;2294;51.818;8.484;2023-01-01T11:36:51;4.00;;;1.60;;
4563;SDS011;2294;51.818;8.484;2023-01-01T11:39:19;8.70;;;1.67;;
4563;SDS011;2294;51.818;8.484;2023-01-01T11:41:51;3.07;;;1.40;;
4563;SDS011;2294;51.818;8.484;2023-01-01T11:44:24;2.90;;;1.90;;
4563;SDS011;2294;51.818;8.484;2023-01-01T11:46:58;3.50;;;1.30;;
4563;SDS011;2294;51.818;8.484;2023-01-01T11:49:26;13.33;;;1.73;;
4563;SDS011;2294;51.818;8.484;2023-01-01T11:51:55;5.97;;;1.87;;
4563;SDS011;2294;51.818;8.484;2023-01-01T11:54:23;6.20;;;2.03;;
4563;SDS011;2294;51.818;8.484;2023-01-01T11:56:57;4.97;;;1.20;;
4563;SDS011;2294;51.818;8.484;2023-01-01T11:59:31;3.50;;;1.50;;
4563;SDS011;2294;51.818;8.484;2023-01-01T12:02:10;7.70;;;1.60;;
4563;SDS011;2294;51.818;8.484;2023-01-01T12:04:42;2.27;;;1.27;;
4563;SDS011;2294;51.818;8.484;2023-01-01T12:07:15;2.33;;;1.30;;
4563;SDS011;2294;51.818;8.484;2023-01-01T12:09:48;6.67;;;2.73;;
4563;SDS011;2294;51.818;8.484;2023-01-01T12:12:22;3.90;;;1.43;;
4563;SDS011;2294;51.818;8.484;2023-01-01T12:14:54;5.70;;;1.33;;
4563;SDS011;2294;51.818;8.484;2023-01-01T12:17:31;6.63;;;2.00;;
4563;SDS011;2294;51.818;8.484;2023-01-01T12:20:00;3.17;;;1.50;;
4563;SDS011;2294;51.818;8.484;2023-01-01T12:22:31;2.27;;;1.43;;
4563;SDS011;2294;51.818;8.484;2023-01-01T12:24:58;7.87;;;1.80;;
4563;SDS011;2294;51.818;8.484;2023-01-01T12:27:33;6.57;;;2.03;;
4563;SDS011;2294;51.818;8.484;2023-01-01T12:30:10;8.87;;;1.50;;
4563;SDS011;2294;51.818;8.484;2023-01-01T12:32:55;5.30;;;1.47;;
4563;SDS011;2294;51.818;8.484;2023-01-01T12:35:43;2.60;;;1.60;;
4563;SDS011;2294;51.818;8.484;2023-01-01T12:38:20;2.20;;;1.10;;
4563;SDS011;2294;51.818;8.484;2023-01-01T12:41:03;3.33;;;1.03;;
4563;SDS011;2294;51.818;8.484;2023-01-01T12:43:38;6.07;;;1.47;;
4563;SDS011;2294;51.818;8.484;2023-01-01T12:46:15;2.40;;;1.90;;
4563;SDS011;2294;51.818;8.484;2023-01-01T12:52:04;5.13;;;1.30;;
4563;SDS011;2294;51.818;8.484;2023-01-01T12:54:45;6.77;;;2.20;;
4563;SDS011;2294;51.818;8.484;2023-01-01T12:57:33;14.07;;;2.23;;
4563;SDS011;2294;51.818;8.484;2023-01-01T13:00:10;4.00;;;1.40;;
4563;SDS011;2294;51.818;8.484;2023-01-01T13:02:40;3.73;;;1.30;;
4563;SDS011;2294;51.818;8.484;2023-01-01T13:05:16;2.30;;;1.37;;
4563;SDS011;2294;51.818;8.484;2023-01-01T13:07:47;3.80;;;1.23;;
4563;SDS011;2294;51.818;8.484;2023-01-01T13:10:21;2.27;;;1.57;;
4563;SDS011;2294;51.818;8.484;2023-01-01T13:12:52;7.13;;;1.63;;
4563;SDS011;2294;51.818;8.484;2023-01-01T13:18:18;3.60;;;1.57;;
4563;SDS011;2294;51.818;8.484;2023-01-01T13:20:55;3.73;;;1.60;;
4563;SDS011;2294;51.818;8.484;2023-01-01T13:23:43;5.00;;;1.50;;
4563;SDS011;2294;51.818;8.484;2023-01-01T13:26:33;3.20;;;1.70;;
4563;SDS011;2294;51.818;8.484;2023-01-01T13:32:06;8.57;;;1.70;;
4563;SDS011;2294;51.818;8.484;2023-01-01T13:37:29;4.87;;;1.63;;
4563;SDS011;2294;51.818;8.484;2023-01-01T13:43:24;9.80;;;1.57;;
4563;SDS011;2294;51.818;8.484;2023-01-01T13:45:53;6.50;;;1.97;;
4563;SDS011;2294;51.818;8.484;2023-01-01T13:51:26;4.80;;;1.40;;
4563;SDS011;2294;51.818;8.484;2023-01-01T13:54:17;5.13;;;1.70;;
4563;SDS011;2294;51.818;8.484;2023-01-01T13:56:54;7.93;;;2.53;;
4563;SDS011;2294;51.818;8.484;2023-01-01T13:59:31;13.10;;;2.30;;
4563;SDS011;2294;51.818;8.484;2023-01-01T14:02:14;3.83;;;1.60;;
4563;SDS011;2294;51.818;8.484;2023-01-01T14:04:48;3.07;;;1.57;;
4563;SDS011;2294;51.818;8.484;2023-01-01T14:07:20;5.77;;;1.80;;
4563;SDS011;2294;51.818;8.484;2023-01-01T14:12:36;2.43;;;1.40;;
4563;SDS011;2294;51.818;8.484;2023-01-01T14:15:12;7.20;;;2.20;;
4563;SDS011;2294;51.818;8.484;2023-01-01T14:17:40;5.90;;;2.17;;
4563;SDS011;2294;51.818;8.484;2023-01-01T14:20:12;3.77;;;1.07;;
4563;SDS011;2294;51.818;8.484;2023-01-01T14:22:42;8.13;;;2.10;;
4563;SDS011;2294;51.818;8.484;2023-01-01T14:25:13;17.57;;;2.27;;
4563;SDS011;2294;51.818;8.484;2023-01-01T14:27:43;10.13;;;1.97;;
4563;SDS011;2294;51.818;8.484;2023-01-01T14:30:16;5.23;;;1.83;;
4563;SDS011;2294;51.818;8.484;2023-01-01T14:32:44;4.07;;;1.53;;
4563;SDS011;2294;51.818;8.484;2023-01-01T14:35:12;4.67;;;1.80;;
4563;SDS011;2294;51.818;8.484;2023-01-01T14:37:41;4.67;;;1.50;;
4563;SDS011;2294;51.818;8.484;2023-01-01T14:40:14;4.93;;;1.80;;
4563;SDS011;2294;51.818;8.484;2023-01-01T14:42:44;3.80;;;1.67;;
4563;SDS011;2294;51.818;8.484;2023-01-01T14:45:13;7.73;;;1.73;;
4563;SDS011;2294;51.818;8.484;2023-01-01T14:47:41;7.33;;;2.00;;
4563;SDS011;2294;51.818;8.484;2023-01-01T14:50:15;3.00;;;1.30;;
4563;SDS011;2294;51.818;8.484;2023-01-01T14:52:49;3.83;;;1.83;;
4563;SDS011;2294;51.818;8.484;2023-01-01T14:55:20;7.33;;;1.87;;
4563;SDS011;2294;51.818;8.484;2023-01-01T14:57:50;6.50;;;1.80;;
4563;SDS011;2294;51.818;8.484;2023-01-01T15:00:22;5.97;;;1.57;;
4563;SDS011;2294;51.818;8.484;2023-01-01T15:02:51;6.73;;;2.10;;
4563;SDS011;2294;51.818;8.484;2023-01-01T15:05:28;6.57;;;2.17;;
4563;SDS011;2294;51.818;8.484;2023-01-01T15:07:56;6.20;;;1.80;;
4563;SDS011;2294;51.818;8.484;2023-01-01T15:10:25;7.87;;;2.00;;
4563;SDS011;2294;51.818;8.484;2023-01-01T15:12:53;7.57;;;1.47;;
4563;SDS011;2294;51.818;8.484;2023-01-01T15:15:36;5.00;;;2.20;;
4563;SDS011;2294;51.818;8.484;2023-01-01T15:18:05;6.30;;;2.03;;
4563;SDS011;2294;51.818;8.484;2023-01-01T15:20:52;7.60;;;3.10;;
4563;SDS011;2294;51.818;8.484;2023-01-01T15:23:20;5.13;;;1.60;;
4563;SDS011;2294;51.818;8.484;2023-01-01T15:25:47;5.57;;;1.90;;
4563;SDS011;2294;51.818;8.484;2023-01-01T15:28:15;11.10;;;2.10;;
4563;SDS011;2294;51.818;8.484;2023-01-01T15:30:48;7.47;;;2.40;;
4563;SDS011;2294;51.818;8.484;2023-01-01T15:33:18;5.77;;;2.00;;
4563;SDS011;2294;51.818;8.484;2023-01-01T15:35:46;10.63;;;2.03;;
4563;SDS011;2294;51.818;8.484;2023-01-01T15:38:15;2.50;;;1.50;;
4563;SDS011;2294;51.818;8.484;2023-01-01T15:40:46;26.03;;;2.00;;
4563;SDS011;2294;51.818;8.484;2023-01-01T15:43:15;4.00;;;2.10;;
4563;SDS011;2294;51.818;8.484;2023-01-01T15:45:53;3.53;;;1.30;;
4563;SDS011;2294;51.818;8.484;2023-01-01T15:48:24;4.17;;;1.40;;
4563;SDS011;2294;51.818;8.484;2023-01-01T15:51:06;8.63;;;1.60;;
4563;SDS011;2294;51.818;8.484;2023-01-01T15:53:45;5.03;;;1.77;;
4563;SDS011;2294;51.818;8.484;2023-01-01T15:56:15;5.43;;;2.13;;
4563;SDS011;2294;51.818;8.484;2023-01-01T15:58:46;5.80;;;1.60;;